sensor_id;sensor_type;location;lat;lon;timestamp;P1;durP1;ratioP1;P2;durP2;ratioP2
4452;SDS011;2239;48.152;11.584;2023-09-07T00:01:08;7.47;;;3.20;;
4452;SDS011;2239;48.152;11.584;2023-09-07T00:03:33;7.77;;;3.87;;
4452;SDS011;2239;48.152;11.584;2023-09-07T00:05:59;7.30;;;3.70;;
4452;SDS011;2239;48.152;11.584;2023-09-07T00:08:24;5.90;;;3.47;;
4452;SDS011;2239;48.152;11.584;2023-09-07T00:10:50;7.00;;;3.50;;
4452;SDS011;2239;48.152;11.584;2023-09-07T00:13:16;7.53;;;3.27;;
4452;SDS011;2239;48.152;11.584;2023-09-07T00:15:42;7.90;;;3.70;;
4452;SDS011;2239;48.152;11.584;2023-09-07T00:18:07;8.10;;;3.87;;
4452;SDS011;2239;48.152;11.584;2023-09-07T00:20:33;8.17;;;4.33;;
4452;SDS011;2239;48.152;11.584;2023-09-07T00:22:59;6.10;;;3.40;;
4452;SDS011;2239;48.152;11.584;2023-09-07T00:25:25;5.83;;;3.53;;
4452;SDS011;2239;48.152;11.584;2023-09-07T00:27:51;7.70;;;4.10;;
4452;SDS011;2239;48.152;11.584;2023-09-07T00:30:17;9.43;;;4.13;;
4452;SDS011;2239;48.152;11.584;2023-09-07T00:32:42;6.10;;;3.47;;
4452;SDS011;2239;48.152;11.584;2023-09-07T00:35:08;7.70;;;3.97;;
4452;SDS011;2239;48.152;11.584;2023-09-07T00:37:34;10.13;;;4.23;;
4452;SDS011;2239;48.152;11.584;2023-09-07T00:39:59;6.00;;;3.57;;
4452;SDS011;2239;48.152;11.584;2023-09-07T00:42:25;10.20;;;3.90;;
4452;SDS011;2239;48.152;11.584;2023-09-07T00:44:51;8.40;;;3.70;;
4452;SDS011;2239;48.152;11.584;2023-09-07T00:47:16;7.20;;;3.37;;
4452;SDS011;2239;48.152;11.584;2023-09-07T00:49:42;6.33;;;3.50;;
4452;SDS011;2239;48.152;11.584;2023-09-07T00:52:08;7.97;;;3.70;;
4452;SDS011;2239;48.152;11.584;2023-09-07T00:54:37;8.13;;;3.83;;
4452;SDS011;2239;48.152;11.584;2023-09-07T00:57:05;6.40;;;3.53;;
4452;SDS011;2239;48.152;11.584;2023-09-07T00:59:34;9.67;;;4.33;;
4452;SDS011;2239;48.152;11.584;2023-09-07T01:02:00;6.10;;;3.57;;
4452;SDS011;2239;48.152;11.584;2023-09-07T01:04:26;7.83;;;3.60;;
4452;SDS011;2239;48.152;11.584;2023-09-07T01:07:01;10.17;;;4.20;;
4452;SDS011;2239;48.152;11.584;2023-09-07T01:09:30;5.57;;;3.57;;
4452;SDS011;2239;48.152;11.584;2023-09-07T01:11:59;7.43;;;4.00;;
4452;SDS011;2239;48.152;11.584;2023-09-07T01:14:25;7.13;;;3.73;;
4452;SDS011;2239;48.152;11.584;2023-09-07T01:16:51;6.20;;;3.13;;
4452;SDS011;2239;48.152;11.584;2023-09-07T01:19:16;6.50;;;3.50;;
4452;SDS011;2239;48.152;11.584;2023-09-07T01:21:42;8.00;;;4.10;;
4452;SDS011;2239;48.152;11.584;2023-09-07T01:24:09;10.73;;;4.77;;
4452;SDS011;2239;48.152;11.584;2023-09-07T01:26:35;8.17;;;4.00;;
4452;SDS011;2239;48.152;11.584;2023-09-07T01:29:04;8.70;;;4.10;;
4452;SDS011;2239;48.152;11.584;2023-09-07T01:31:37;6.73;;;3.73;;
4452;SDS011;2239;48.152;11.584;2023-09-07T01:34:04;7.23;;;3.70;;
4452;SDS011;2239;48.152;11.584;2023-09-07T01:36:30;8.30;;;3.60;;
4452;SDS011;2239;48.152;11.584;2023-09-07T01:38:56;6.03;;;3.60;;
4452;SDS011;2239;48.152;11.584;2023-09-07T01:41:21;6.27;;;3.20;;
4452;SDS011;2239;48.152;11.584;2023-09-07T01:43:47;8.30;;;4.13;;
4452;SDS011;2239;48.152;11.584;2023-09-07T01:46:13;7.63;;;3.93;;
4452;SDS011;2239;48.152;11.584;2023-09-07T01:48:38;7.13;;;4.00;;
4452;SDS011;2239;48.152;11.584;2023-09-07T01:51:04;5.27;;;3.10;;
4452;SDS011;2239;48.152;11.584;2023-09-07T01:53:29;9.20;;;3.83;;
4452;SDS011;2239;48.152;11.584;2023-09-07T01:55:55;9.07;;;4.20;;
4452;SDS011;2239;48.152;11.584;2023-09-07T01:58:21;9.17;;;4.30;;
4452;SDS011;2239;48.152;11.584;2023-09-07T02:00:48;7.40;;;4.00;;
4452;SDS011;2239;48.152;11.584;2023-09-07T02:03:14;7.80;;;3.67;;
4452;SDS011;2239;48.152;11.584;2023-09-07T02:05:40;7.47;;;3.47;;
4452;SDS011;2239;48.152;11.584;2023-09-07T02:08:05;6.60;;;3.60;;
4452;SDS011;2239;48.152;11.584;2023-09-07T02:10:31;8.63;;;4.10;;
4452;SDS011;2239;48.152;11.584;2023-09-07T02:12:56;9.63;;;4.00;;
4452;SDS011;2239;48.152;11.584;2023-09-07T02:15:23;6.97;;;4.10;;
4452;SDS011;2239;48.152;11.584;2023-09-07T02:17:49;6.30;;;3.80;;
4452;SDS011;2239;48.152;11.584;2023-09-07T02:20:14;7.57;;;3.50;;
4452;SDS011;2239;48.152;11.584;2023-09-07T02:22:40;7.63;;;4.00;;
4452;SDS011;2239;48.152;11.584;2023-09-07T02:25:06;9.57;;;4.10;;
4452;SDS011;2239;48.152;11.584;2023-09-07T02:27:32;7.00;;;3.77;;
4452;SDS011;2239;48.152;11.584;2023-09-07T02:29:58;9.60;;;4.20;;
4452;SDS011;2239;48.152;11.584;2023-09-07T02:32:23;6.93;;;3.40;;
4452;SDS011;2239;48.152;11.584;2023-09-07T02:34:49;6.37;;;3.50;;
4452;SDS011;2239;48.152;11.584;2023-09-07T02:37:14;9.03;;;3.80;;
4452;SDS011;2239;48.152;11.584;2023-09-07T02:39:41;5.60;;;3.60;;
4452;SDS011;2239;48.152;11.584;2023-09-07T02:42:07;9.37;;;4.00;;
4452;SDS011;2239;48.152;11.584;2023-09-07T02:44:32;7.07;;;3.20;;
4452;SDS011;2239;48.152;11.584;2023-09-07T02:46:58;8.17;;;3.93;;
4452;SDS011;2239;48.152;11.584;2023-09-07T02:49:24;9.20;;;4.70;;
4452;SDS011;2239;48.152;11.584;2023-09-07T02:51:49;12.17;;;4.97;;
4452;SDS011;2239;48.152;11.584;2023-09-07T02:54:15;9.20;;;4.90;;
4452;SDS011;2239;48.152;11.584;2023-09-07T02:56:40;7.90;;;4.33;;
4452;SDS011;2239;48.152;11.584;2023-09-07T02:59:06;11.10;;;5.00;;
4452;SDS011;2239;48.152;11.584;2023-09-07T03:01:31;8.57;;;4.10;;
4452;SDS011;2239;48.152;11.584;2023-09-07T03:03:57;9.30;;;3.80;;
4452;SDS011;2239;48.152;11.584;2023-09-07T03:06:22;10.03;;;4.00;;
4452;SDS011;2239;48.152;11.584;2023-09-07T03:08:48;7.23;;;4.07;;
4452;SDS011;2239;48.152;11.584;2023-09-07T03:11:13;7.10;;;3.90;;
4452;SDS011;2239;48.152;11.584;2023-09-07T03:13:39;9.53;;;3.87;;
4452;SDS011;2239;48.152;11.584;2023-09-07T03:16:05;9.43;;;4.80;;
4452;SDS011;2239;48.152;11.584;2023-09-07T03:18:31;8.90;;;4.30;;
4452;SDS011;2239;48.152;11.584;2023-09-07T03:20:58;7.23;;;3.90;;
4452;SDS011;2239;48.152;11.584;2023-09-07T03:23:25;6.33;;;3.63;;
4452;SDS011;2239;48.152;11.584;2023-09-07T03:25:50;8.50;;;4.30;;
4452;SDS011;2239;48.152;11.584;2023-09-07T03:28:16;9.20;;;4.30;;
4452;SDS011;2239;48.152;11.584;2023-09-07T03:30:41;8.27;;;4.27;;
4452;SDS011;2239;48.152;11.584;2023-09-07T03:33:07;6.80;;;3.83;;
4452;SDS011;2239;48.152;11.584;2023-09-07T03:35:32;9.80;;;4.03;;
4452;SDS011;2239;48.152;11.584;2023-09-07T03:37:58;7.97;;;3.90;;
4452;SDS011;2239;48.152;11.584;2023-09-07T03:40:24;8.43;;;4.10;;
4452;SDS011;2239;48.152;11.584;2023-09-07T03:42:50;8.10;;;4.27;;
4452;SDS011;2239;48.152;11.584;2023-09-07T03:45:15;7.50;;;3.83;;
4452;SDS011;2239;48.152;11.584;2023-09-07T03:47:41;6.97;;;3.80;;
4452;SDS011;2239;48.152;11.584;2023-09-07T03:50:07;8.50;;;3.67;;
4452;SDS011;2239;48.152;11.584;2023-09-07T03:52:33;8.83;;;4.63;;
4452;SDS011;2239;48.152;11.584;2023-09-07T03:54:59;10.73;;;4.47;;
4452;SDS011;2239;48.152;11.584;2023-09-07T03:57:25;8.17;;;4.47;;
4452;SDS011;2239;48.152;11.584;2023-09-07T03:59:51;7.57;;;3.80;;
4452;SDS011;2239;48.152;11.584;2023-09-07T04:02:16;7.50;;;3.80;;
4452;SDS011;2239;48.152;11.584;2023-09-07T04:04:49;7.10;;;3.50;;
4452;SDS011;2239;48.152;11.584;2023-09-07T04:07:15;6.50;;;3.73;;
4452;SDS011;2239;48.152;11.584;2023-09-07T04:09:41;8.43;;;3.93;;
4452;SDS011;2239;48.152;11.584;2023-09-07T04:12:08;7.60;;;3.77;;
4452;SDS011;2239;48.152;11.584;2023-09-07T04:14:34;7.63;;;4.03;;
4452;SDS011;2239;48.152;11.584;2023-09-07T04:17:00;7.70;;;4.30;;
4452;SDS011;2239;48.152;11.584;2023-09-07T04:19:26;10.00;;;5.10;;
4452;SDS011;2239;48.152;11.584;2023-09-07T04:21:51;8.83;;;4.53;;
4452;SDS011;2239;48.152;11.584;2023-09-07T04:24:17;7.37;;;4.03;;
4452;SDS011;2239;48.152;11.584;2023-09-07T04:26:42;7.20;;;3.77;;
4452;SDS011;2239;48.152;11.584;2023-09-07T04:29:08;7.70;;;4.00;;
4452;SDS011;2239;48.152;11.584;2023-09-07T04:31:34;7.20;;;3.53;;
4452;SDS011;2239;48.152;11.584;2023-09-07T04:34:00;12.37;;;4.77;;
4452;SDS011;2239;48.152;11.584;2023-09-07T04:36:25;7.03;;;3.97;;
4452;SDS011;2239;48.152;11.584;2023-09-07T04:38:51;10.93;;;3.90;;
4452;SDS011;2239;48.152;11.584;2023-09-07T04:41:17;7.10;;;3.50;;
4452;SDS011;2239;48.152;11.584;2023-09-07T04:43:42;8.73;;;4.50;;
4452;SDS011;2239;48.152;11.584;2023-09-07T04:46:12;6.73;;;3.43;;
4452;SDS011;2239;48.152;11.584;2023-09-07T04:48:38;8.90;;;3.67;;
4452;SDS011;2239;48.152;11.584;2023-09-07T04:51:06;5.83;;;3.30;;
4452;SDS011;2239;48.152;11.584;2023-09-07T04:53:33;8.17;;;3.73;;
4452;SDS011;2239;48.152;11.584;2023-09-07T04:56:01;7.57;;;4.10;;
4452;SDS011;2239;48.152;11.584;2023-09-07T04:58:28;9.03;;;4.70;;
4452;SDS011;2239;48.152;11.584;2023-09-07T05:00:53;10.60;;;4.40;;
4452;SDS011;2239;48.152;11.584;2023-09-07T05:03:19;8.97;;;4.53;;
4452;SDS011;2239;48.152;11.584;2023-09-07T05:05:50;7.40;;;3.80;;
4452;SDS011;2239;48.152;11.584;2023-09-07T05:08:16;7.67;;;3.83;;
4452;SDS011;2239;48.152;11.584;2023-09-07T05:10:42;14.10;;;4.93;;
4452;SDS011;2239;48.152;11.584;2023-09-07T05:13:07;13.27;;;3.97;;
4452;SDS011;2239;48.152;11.584;2023-09-07T05:15:33;8.07;;;4.20;;
4452;SDS011;2239;48.152;11.584;2023-09-07T05:17:58;9.80;;;5.30;;
4452;SDS011;2239;48.152;11.584;2023-09-07T05:20:24;12.87;;;5.27;;
4452;SDS011;2239;48.152;11.584;2023-09-07T05:22:50;9.53;;;4.53;;
4452;SDS011;2239;48.152;11.584;2023-09-07T05:25:15;11.23;;;5.60;;
4452;SDS011;2239;48.152;11.584;2023-09-07T05:27:41;11.43;;;4.93;;
4452;SDS011;2239;48.152;11.584;2023-09-07T05:30:07;12.00;;;5.07;;
4452;SDS011;2239;48.152;11.584;2023-09-07T05:32:32;12.20;;;5.30;;
4452;SDS011;2239;48.152;11.584;2023-09-07T05:34:58;9.23;;;4.50;;
4452;SDS011;2239;48.152;11.584;2023-09-07T05:37:24;18.60;;;5.60;;
4452;SDS011;2239;48.152;11.584;2023-09-07T05:39:49;13.23;;;4.87;;
4452;SDS011;2239;48.152;11.584;2023-09-07T05:42:15;9.63;;;4.63;;
4452;SDS011;2239;48.152;11.584;2023-09-07T05:44:41;11.10;;;4.80;;
4452;SDS011;2239;48.152;11.584;2023-09-07T05:47:06;13.20;;;4.83;;
4452;SDS011;2239;48.152;11.584;2023-09-07T05:49:32;9.97;;;4.90;;
4452;SDS011;2239;48.152;11.584;2023-09-07T05:51:57;9.90;;;5.23;;
4452;SDS011;2239;48.152;11.584;2023-09-07T05:54:23;8.07;;;4.63;;
4452;SDS011;2239;48.152;11.584;2023-09-07T05:56:48;13.10;;;4.40;;
4452;SDS011;2239;48.152;11.584;2023-09-07T05:59:14;9.10;;;4.63;;
4452;SDS011;2239;48.152;11.584;2023-09-07T06:01:39;9.20;;;4.73;;
4452;SDS011;2239;48.152;11.584;2023-09-07T06:04:05;12.70;;;5.60;;
4452;SDS011;2239;48.152;11.584;2023-09-07T06:06:31;9.20;;;4.90;;
4452;SDS011;2239;48.152;11.584;2023-09-07T06:08:57;11.43;;;5.50;;
4452;SDS011;2239;48.152;11.584;2023-09-07T06:11:25;14.20;;;5.10;;
4452;SDS011;2239;48.152;11.584;2023-09-07T06:13:51;9.80;;;5.27;;
4452;SDS011;2239;48.152;11.584;2023-09-07T06:16:17;12.77;;;5.20;;
4452;SDS011;2239;48.152;11.584;2023-09-07T06:18:42;10.50;;;4.97;;
4452;SDS011;2239;48.152;11.584;2023-09-07T06:21:08;8.23;;;4.63;;
4452;SDS011;2239;48.152;11.584;2023-09-07T06:23:34;14.30;;;5.13;;
4452;SDS011;2239;48.152;11.584;2023-09-07T06:25:59;9.53;;;5.37;;
4452;SDS011;2239;48.152;11.584;2023-09-07T06:28:25;10.07;;;4.67;;
4452;SDS011;2239;48.152;11.584;2023-09-07T06:30:51;10.73;;;5.20;;
4452;SDS011;2239;48.152;11.584;2023-09-07T06:33:17;10.57;;;5.37;;
4452;SDS011;2239;48.152;11.584;2023-09-07T06:35:43;9.17;;;4.90;;
4452;SDS011;2239;48.152;11.584;2023-09-07T06:38:08;7.97;;;4.30;;
4452;SDS011;2239;48.152;11.584;2023-09-07T06:40:34;10.17;;;5.00;;
4452;SDS011;2239;48.152;11.584;2023-09-07T06:42:59;10.93;;;4.70;;
4452;SDS011;2239;48.152;11.584;2023-09-07T06:45:30;9.40;;;5.37;;
4452;SDS011;2239;48.152;11.584;2023-09-07T06:47:59;8.60;;;4.70;;
4452;SDS011;2239;48.152;11.584;2023-09-07T06:50:26;11.53;;;5.60;;
4452;SDS011;2239;48.152;11.584;2023-09-07T06:52:52;10.03;;;5.23;;
4452;SDS011;2239;48.152;11.584;2023-09-07T06:55:17;11.50;;;5.27;;
4452;SDS011;2239;48.152;11.584;2023-09-07T06:57:43;11.93;;;5.47;;
4452;SDS011;2239;48.152;11.584;2023-09-07T07:00:09;9.43;;;4.87;;
4452;SDS011;2239;48.152;11.584;2023-09-07T07:02:35;12.77;;;5.70;;
4452;SDS011;2239;48.152;11.584;2023-09-07T07:05:01;11.67;;;5.40;;
4452;SDS011;2239;48.152;11.584;2023-09-07T07:07:29;11.10;;;5.30;;
4452;SDS011;2239;48.152;11.584;2023-09-07T07:09:54;10.77;;;5.73;;
4452;SDS011;2239;48.152;11.584;2023-09-07T07:12:20;12.53;;;5.40;;
4452;SDS011;2239;48.152;11.584;2023-09-07T07:14:46;11.37;;;5.83;;
4452;SDS011;2239;48.152;11.584;2023-09-07T07:17:11;11.97;;;5.73;;
4452;SDS011;2239;48.152;11.584;2023-09-07T07:19:37;11.00;;;5.00;;
4452;SDS011;2239;48.152;11.584;2023-09-07T07:22:03;12.67;;;6.33;;
4452;SDS011;2239;48.152;11.584;2023-09-07T07:24:28;15.27;;;5.23;;
4452;SDS011;2239;48.152;11.584;2023-09-07T07:26:54;9.27;;;4.33;;
4452;SDS011;2239;48.152;11.584;2023-09-07T07:29:20;10.90;;;5.70;;
4452;SDS011;2239;48.152;11.584;2023-09-07T07:31:45;10.50;;;4.73;;
4452;SDS011;2239;48.152;11.584;2023-09-07T07:34:12;11.13;;;5.23;;
4452;SDS011;2239;48.152;11.584;2023-09-07T07:36:37;18.23;;;5.97;;
4452;SDS011;2239;48.152;11.584;2023-09-07T07:39:03;7.67;;;4.80;;
4452;SDS011;2239;48.152;11.584;2023-09-07T07:41:31;12.53;;;5.40;;
4452;SDS011;2239;48.152;11.584;2023-09-07T07:43:57;12.83;;;5.60;;
4452;SDS011;2239;48.152;11.584;2023-09-07T07:46:22;14.37;;;5.17;;
4452;SDS011;2239;48.152;11.584;2023-09-07T07:48:48;9.47;;;4.97;;
4452;SDS011;2239;48.152;11.584;2023-09-07T07:51:14;11.23;;;5.43;;
4452;SDS011;2239;48.152;11.584;2023-09-07T07:53:39;9.77;;;4.80;;
4452;SDS011;2239;48.152;11.584;2023-09-07T07:56:05;9.30;;;4.70;;
4452;SDS011;2239;48.152;11.584;2023-09-07T07:58:30;8.20;;;4.40;;
4452;SDS011;2239;48.152;11.584;2023-09-07T08:00:56;9.67;;;5.07;;
4452;SDS011;2239;48.152;11.584;2023-09-07T08:03:23;9.13;;;5.10;;
4452;SDS011;2239;48.152;11.584;2023-09-07T08:05:49;10.33;;;5.03;;
4452;SDS011;2239;48.152;11.584;2023-09-07T08:08:14;7.57;;;4.60;;
4452;SDS011;2239;48.152;11.584;2023-09-07T08:10:40;10.07;;;5.37;;
4452;SDS011;2239;48.152;11.584;2023-09-07T08:13:06;12.10;;;5.37;;
4452;SDS011;2239;48.152;11.584;2023-09-07T08:15:33;8.93;;;4.43;;
4452;SDS011;2239;48.152;11.584;2023-09-07T08:17:59;9.73;;;5.00;;
4452;SDS011;2239;48.152;11.584;2023-09-07T08:20:25;9.30;;;4.50;;
4452;SDS011;2239;48.152;11.584;2023-09-07T08:22:51;8.67;;;5.20;;
4452;SDS011;2239;48.152;11.584;2023-09-07T08:25:17;10.13;;;4.50;;
4452;SDS011;2239;48.152;11.584;2023-09-07T08:27:43;8.53;;;4.47;;
4452;SDS011;2239;48.152;11.584;2023-09-07T08:30:11;8.13;;;4.93;;
4452;SDS011;2239;48.152;11.584;2023-09-07T08:32:38;9.00;;;5.00;;
4452;SDS011;2239;48.152;11.584;2023-09-07T08:35:04;9.07;;;5.17;;
4452;SDS011;2239;48.152;11.584;2023-09-07T08:37:32;9.80;;;5.20;;
4452;SDS011;2239;48.152;11.584;2023-09-07T08:39:58;9.50;;;5.17;;
4452;SDS011;2239;48.152;11.584;2023-09-07T08:42:24;8.33;;;4.57;;
4452;SDS011;2239;48.152;11.584;2023-09-07T08:44:50;8.13;;;4.83;;
4452;SDS011;2239;48.152;11.584;2023-09-07T08:47:19;8.50;;;4.80;;
4452;SDS011;2239;48.152;11.584;2023-09-07T08:49:46;8.27;;;4.50;;
4452;SDS011;2239;48.152;11.584;2023-09-07T08:52:12;11.10;;;4.30;;
4452;SDS011;2239;48.152;11.584;2023-09-07T08:54:41;10.33;;;4.63;;
4452;SDS011;2239;48.152;11.584;2023-09-07T08:57:08;9.90;;;4.87;;
4452;SDS011;2239;48.152;11.584;2023-09-07T08:59:35;7.90;;;4.80;;
4452;SDS011;2239;48.152;11.584;2023-09-07T09:02:01;5.60;;;4.00;;
4452;SDS011;2239;48.152;11.584;2023-09-07T09:04:29;9.33;;;5.13;;
4452;SDS011;2239;48.152;11.584;2023-09-07T09:06:55;11.30;;;4.70;;
4452;SDS011;2239;48.152;11.584;2023-09-07T09:09:23;8.07;;;4.80;;
4452;SDS011;2239;48.152;11.584;2023-09-07T09:11:49;8.10;;;4.50;;
4452;SDS011;2239;48.152;11.584;2023-09-07T09:14:18;12.97;;;5.70;;
4452;SDS011;2239;48.152;11.584;2023-09-07T09:16:48;8.90;;;4.93;;
4452;SDS011;2239;48.152;11.584;2023-09-07T09:19:15;7.03;;;4.20;;
4452;SDS011;2239;48.152;11.584;2023-09-07T09:21:41;7.00;;;4.27;;
4452;SDS011;2239;48.152;11.584;2023-09-07T09:24:09;7.27;;;4.30;;
4452;SDS011;2239;48.152;11.584;2023-09-07T09:26:38;7.47;;;4.20;;
4452;SDS011;2239;48.152;11.584;2023-09-07T09:29:04;8.20;;;4.60;;
4452;SDS011;2239;48.152;11.584;2023-09-07T09:31:30;7.37;;;4.33;;
4452;SDS011;2239;48.152;11.584;2023-09-07T09:33:56;9.60;;;4.70;;
4452;SDS011;2239;48.152;11.584;2023-09-07T09:36:22;8.73;;;4.33;;
4452;SDS011;2239;48.152;11.584;2023-09-07T09:38:51;7.10;;;4.37;;
4452;SDS011;2239;48.152;11.584;2023-09-07T09:41:20;8.33;;;4.63;;
4452;SDS011;2239;48.152;11.584;2023-09-07T09:43:46;8.67;;;4.77;;
4452;SDS011;2239;48.152;11.584;2023-09-07T09:46:16;7.97;;;5.03;;
4452;SDS011;2239;48.152;11.584;2023-09-07T09:48:42;6.63;;;4.63;;
4452;SDS011;2239;48.152;11.584;2023-09-07T09:51:09;10.43;;;4.93;;
4452;SDS011;2239;48.152;11.584;2023-09-07T09:53:36;8.97;;;4.40;;
4452;SDS011;2239;48.152;11.584;2023-09-07T09:56:03;8.00;;;4.70;;
4452;SDS011;2239;48.152;11.584;2023-09-07T09:58:28;8.73;;;5.13;;
4452;SDS011;2239;48.152;11.584;2023-09-07T10:00:54;9.77;;;5.30;;
4452;SDS011;2239;48.152;11.584;2023-09-07T10:05:53;8.10;;;5.00;;
4452;SDS011;2239;48.152;11.584;2023-09-07T10:08:19;9.13;;;5.47;;
4452;SDS011;2239;48.152;11.584;2023-09-07T10:10:47;9.77;;;5.20;;
4452;SDS011;2239;48.152;11.584;2023-09-07T10:13:28;7.60;;;4.27;;
4452;SDS011;2239;48.152;11.584;2023-09-07T10:16:02;9.13;;;5.10;;
4452;SDS011;2239;48.152;11.584;2023-09-07T10:18:33;7.50;;;4.53;;
4452;SDS011;2239;48.152;11.584;2023-09-07T10:20:59;8.60;;;4.77;;
4452;SDS011;2239;48.152;11.584;2023-09-07T10:26:17;7.63;;;4.47;;
4452;SDS011;2239;48.152;11.584;2023-09-07T10:28:46;7.90;;;4.70;;
4452;SDS011;2239;48.152;11.584;2023-09-07T10:31:18;9.40;;;4.60;;
4452;SDS011;2239;48.152;11.584;2023-09-07T10:33:45;7.63;;;4.50;;
4452;SDS011;2239;48.152;11.584;2023-09-07T10:36:24;7.40;;;4.40;;
4452;SDS011;2239;48.152;11.584;2023-09-07T10:38:52;8.60;;;4.57;;
4452;SDS011;2239;48.152;11.584;2023-09-07T10:41:19;7.90;;;5.00;;
4452;SDS011;2239;48.152;11.584;2023-09-07T10:43:52;7.00;;;4.40;;
4452;SDS011;2239;48.152;11.584;2023-09-07T10:46:20;8.43;;;4.97;;
4452;SDS011;2239;48.152;11.584;2023-09-07T10:48:50;6.43;;;4.10;;
4452;SDS011;2239;48.152;11.584;2023-09-07T10:51:17;6.80;;;4.63;;
4452;SDS011;2239;48.152;11.584;2023-09-07T10:53:43;11.60;;;4.63;;
4452;SDS011;2239;48.152;11.584;2023-09-07T10:56:09;7.50;;;4.80;;
4452;SDS011;2239;48.152;11.584;2023-09-07T10:58:35;7.40;;;5.03;;
4452;SDS011;2239;48.152;11.584;2023-09-07T11:01:06;11.60;;;4.30;;
4452;SDS011;2239;48.152;11.584;2023-09-07T11:03:33;8.30;;;5.20;;
4452;SDS011;2239;48.152;11.584;2023-09-07T11:08:35;6.20;;;4.57;;
4452;SDS011;2239;48.152;11.584;2023-09-07T11:11:04;8.13;;;4.53;;
4452;SDS011;2239;48.152;11.584;2023-09-07T11:13:30;7.10;;;4.90;;
4452;SDS011;2239;48.152;11.584;2023-09-07T11:15:56;7.60;;;4.63;;
4452;SDS011;2239;48.152;11.584;2023-09-07T11:18:23;7.40;;;4.40;;
4452;SDS011;2239;48.152;11.584;2023-09-07T11:20:50;7.23;;;4.40;;
4452;SDS011;2239;48.152;11.584;2023-09-07T11:23:17;7.50;;;4.43;;
4452;SDS011;2239;48.152;11.584;2023-09-07T11:25:43;8.27;;;4.70;;
4452;SDS011;2239;48.152;11.584;2023-09-07T11:28:09;6.87;;;4.60;;
4452;SDS011;2239;48.152;11.584;2023-09-07T11:30:48;8.80;;;5.07;;
4452;SDS011;2239;48.152;11.584;2023-09-07T11:33:15;7.07;;;4.37;;
4452;SDS011;2239;48.152;11.584;2023-09-07T11:35:41;7.33;;;4.63;;
4452;SDS011;2239;48.152;11.584;2023-09-07T11:38:07;9.43;;;4.90;;
4452;SDS011;2239;48.152;11.584;2023-09-07T11:40:35;5.63;;;3.60;;
4452;SDS011;2239;48.152;11.584;2023-09-07T11:43:00;10.83;;;5.00;;
4452;SDS011;2239;48.152;11.584;2023-09-07T11:45:26;7.13;;;4.00;;
4452;SDS011;2239;48.152;11.584;2023-09-07T11:47:52;6.30;;;4.27;;
4452;SDS011;2239;48.152;11.584;2023-09-07T11:50:18;8.63;;;4.93;;
4452;SDS011;2239;48.152;11.584;2023-09-07T11:52:44;6.33;;;4.20;;
4452;SDS011;2239;48.152;11.584;2023-09-07T11:55:10;7.30;;;4.13;;
4452;SDS011;2239;48.152;11.584;2023-09-07T11:57:36;8.67;;;4.63;;
4452;SDS011;2239;48.152;11.584;2023-09-07T12:00:02;8.20;;;4.90;;
4452;SDS011;2239;48.152;11.584;2023-09-07T12:02:29;7.50;;;4.50;;
4452;SDS011;2239;48.152;11.584;2023-09-07T12:04:55;8.70;;;4.63;;
4452;SDS011;2239;48.152;11.584;2023-09-07T12:07:20;7.07;;;4.67;;
4452;SDS011;2239;48.152;11.584;2023-09-07T12:09:46;6.60;;;3.90;;
4452;SDS011;2239;48.152;11.584;2023-09-07T12:12:13;9.00;;;4.03;;
4452;SDS011;2239;48.152;11.584;2023-09-07T12:14:39;8.03;;;4.07;;
4452;SDS011;2239;48.152;11.584;2023-09-07T12:17:04;6.83;;;4.50;;
4452;SDS011;2239;48.152;11.584;2023-09-07T12:19:30;6.03;;;4.03;;
4452;SDS011;2239;48.152;11.584;2023-09-07T12:21:55;6.67;;;3.93;;
4452;SDS011;2239;48.152;11.584;2023-09-07T12:24:21;6.63;;;4.10;;
4452;SDS011;2239;48.152;11.584;2023-09-07T12:26:46;5.53;;;4.10;;
4452;SDS011;2239;48.152;11.584;2023-09-07T12:29:12;7.30;;;3.93;;
4452;SDS011;2239;48.152;11.584;2023-09-07T12:31:38;6.67;;;4.30;;
4452;SDS011;2239;48.152;11.584;2023-09-07T12:34:03;6.53;;;4.20;;
4452;SDS011;2239;48.152;11.584;2023-09-07T12:36:29;6.63;;;4.30;;
4452;SDS011;2239;48.152;11.584;2023-09-07T12:38:55;7.70;;;3.87;;
4452;SDS011;2239;48.152;11.584;2023-09-07T12:41:27;7.60;;;4.73;;
4452;SDS011;2239;48.152;11.584;2023-09-07T12:43:53;6.20;;;3.87;;
4452;SDS011;2239;48.152;11.584;2023-09-07T12:46:19;6.87;;;4.20;;
4452;SDS011;2239;48.152;11.584;2023-09-07T12:48:44;5.30;;;3.90;;
4452;SDS011;2239;48.152;11.584;2023-09-07T12:51:10;6.10;;;3.90;;
4452;SDS011;2239;48.152;11.584;2023-09-07T12:53:36;7.10;;;4.07;;
4452;SDS011;2239;48.152;11.584;2023-09-07T12:56:01;6.27;;;3.87;;
4452;SDS011;2239;48.152;11.584;2023-09-07T12:58:28;5.90;;;3.73;;
4452;SDS011;2239;48.152;11.584;2023-09-07T13:00:53;6.60;;;3.50;;
4452;SDS011;2239;48.152;11.584;2023-09-07T13:03:19;6.63;;;4.23;;
4452;SDS011;2239;48.152;11.584;2023-09-07T13:05:45;6.63;;;4.10;;
4452;SDS011;2239;48.152;11.584;2023-09-07T13:08:10;5.60;;;3.63;;
4452;SDS011;2239;48.152;11.584;2023-09-07T13:10:36;5.87;;;3.80;;
4452;SDS011;2239;48.152;11.584;2023-09-07T13:13:02;14.90;;;4.20;;
4452;SDS011;2239;48.152;11.584;2023-09-07T13:15:27;6.07;;;3.70;;
4452;SDS011;2239;48.152;11.584;2023-09-07T13:17:53;4.80;;;3.30;;
4452;SDS011;2239;48.152;11.584;2023-09-07T13:20:18;5.47;;;3.70;;
4452;SDS011;2239;48.152;11.584;2023-09-07T13:22:45;4.97;;;3.30;;
4452;SDS011;2239;48.152;11.584;2023-09-07T13:25:11;8.47;;;4.77;;
4452;SDS011;2239;48.152;11.584;2023-09-07T13:27:37;7.97;;;4.37;;
4452;SDS011;2239;48.152;11.584;2023-09-07T13:30:03;7.03;;;3.97;;
4452;SDS011;2239;48.152;11.584;2023-09-07T13:32:29;5.43;;;3.00;;
4452;SDS011;2239;48.152;11.584;2023-09-07T13:34:55;5.47;;;3.50;;
4452;SDS011;2239;48.152;11.584;2023-09-07T13:37:20;5.57;;;3.00;;
4452;SDS011;2239;48.152;11.584;2023-09-07T13:39:47;5.60;;;3.10;;
4452;SDS011;2239;48.152;11.584;2023-09-07T13:42:13;6.70;;;3.80;;
4452;SDS011;2239;48.152;11.584;2023-09-07T13:44:39;3.63;;;2.83;;
4452;SDS011;2239;48.152;11.584;2023-09-07T13:47:05;6.30;;;3.57;;
4452;SDS011;2239;48.152;11.584;2023-09-07T13:49:31;5.30;;;3.37;;
4452;SDS011;2239;48.152;11.584;2023-09-07T13:51:57;7.03;;;3.67;;
4452;SDS011;2239;48.152;11.584;2023-09-07T13:54:22;6.40;;;3.33;;
4452;SDS011;2239;48.152;11.584;2023-09-07T13:56:48;6.17;;;3.53;;
4452;SDS011;2239;48.152;11.584;2023-09-07T13:59:13;5.90;;;3.40;;
4452;SDS011;2239;48.152;11.584;2023-09-07T14:01:39;5.07;;;3.63;;
4452;SDS011;2239;48.152;11.584;2023-09-07T14:04:05;4.63;;;3.47;;
4452;SDS011;2239;48.152;11.584;2023-09-07T14:06:31;7.20;;;3.47;;
4452;SDS011;2239;48.152;11.584;2023-09-07T14:08:57;6.50;;;3.63;;
4452;SDS011;2239;48.152;11.584;2023-09-07T14:11:22;5.63;;;3.00;;
4452;SDS011;2239;48.152;11.584;2023-09-07T14:13:48;7.03;;;3.30;;
4452;SDS011;2239;48.152;11.584;2023-09-07T14:16:18;5.97;;;3.43;;
4452;SDS011;2239;48.152;11.584;2023-09-07T14:18:44;5.07;;;3.50;;
4452;SDS011;2239;48.152;11.584;2023-09-07T14:21:10;6.47;;;3.37;;
4452;SDS011;2239;48.152;11.584;2023-09-07T14:23:38;6.90;;;3.10;;
4452;SDS011;2239;48.152;11.584;2023-09-07T14:26:04;5.10;;;3.20;;
4452;SDS011;2239;48.152;11.584;2023-09-07T14:28:30;8.13;;;3.00;;
4452;SDS011;2239;48.152;11.584;2023-09-07T14:30:55;5.67;;;2.93;;
4452;SDS011;2239;48.152;11.584;2023-09-07T14:33:23;4.57;;;2.80;;
4452;SDS011;2239;48.152;11.584;2023-09-07T14:35:50;4.83;;;3.17;;
4452;SDS011;2239;48.152;11.584;2023-09-07T14:38:20;5.20;;;3.50;;
4452;SDS011;2239;48.152;11.584;2023-09-07T14:40:46;4.00;;;2.90;;
4452;SDS011;2239;48.152;11.584;2023-09-07T14:43:13;4.20;;;2.83;;
4452;SDS011;2239;48.152;11.584;2023-09-07T14:45:39;6.90;;;3.70;;
4452;SDS011;2239;48.152;11.584;2023-09-07T14:48:04;6.70;;;3.33;;
4452;SDS011;2239;48.152;11.584;2023-09-07T14:50:30;6.33;;;3.47;;
4452;SDS011;2239;48.152;11.584;2023-09-07T14:52:56;4.70;;;2.83;;
4452;SDS011;2239;48.152;11.584;2023-09-07T14:55:21;5.23;;;3.30;;
4452;SDS011;2239;48.152;11.584;2023-09-07T14:57:47;6.07;;;3.07;;
4452;SDS011;2239;48.152;11.584;2023-09-07T15:00:13;3.47;;;2.80;;